sensor_id;sensor_type;location;lat;lon;timestamp;pressure;altitude;pressure_sealevel;temperature;humidity
21182;BME280;10749;46.296;7.524;2023-07-31T00:00:12;95132.06;;;20.50;42.76
21182;BME280;10749;46.296;7.524;2023-07-31T00:02:38;95131.94;;;20.45;42.98
21182;BME280;10749;46.296;7.524;2023-07-31T00:05:04;95133.22;;;20.42;42.96
21182;BME280;10749;46.296;7.524;2023-07-31T00:07:29;95128.44;;;20.33;42.90
21182;BME280;10749;46.296;7.524;2023-07-31T00:09:54;95135.44;;;20.34;43.15
21182;BME280;10749;46.296;7.524;2023-07-31T00:12:22;95136.59;;;20.38;42.45
21182;BME280;10749;46.296;7.524;2023-07-31T00:14:47;95127.16;;;20.35;42.79
21182;BME280;10749;46.296;7.524;2023-07-31T00:17:12;95124.69;;;20.34;42.91
21182;BME280;10749;46.296;7.524;2023-07-31T00:19:38;95129.00;;;20.35;42.94
21182;BME280;10749;46.296;7.524;2023-07-31T00:22:03;95126.31;;;20.35;43.04
21182;BME280;10749;46.296;7.524;2023-07-31T00:24:29;95130.53;;;20.31;43.33
21182;BME280;10749;46.296;7.524;2023-07-31T00:26:54;95130.78;;;20.29;43.24
21182;BME280;10749;46.296;7.524;2023-07-31T00:29:19;95132.63;;;20.28;43.31
21182;BME280;10749;46.296;7.524;2023-07-31T00:31:45;95121.03;;;20.28;43.34
21182;BME280;10749;46.296;7.524;2023-07-31T00:34:10;95125.97;;;20.31;43.46
21182;BME280;10749;46.296;7.524;2023-07-31T00:36:36;95130.97;;;20.27;43.78
21182;BME280;10749;46.296;7.524;2023-07-31T00:39:01;95133.06;;;20.25;43.91
21182;BME280;10749;46.296;7.524;2023-07-31T00:41:26;95132.34;;;20.18;43.86
21182;BME280;10749;46.296;7.524;2023-07-31T00:43:51;95135.50;;;20.15;43.82
21182;BME280;10749;46.296;7.524;2023-07-31T00:46:17;95137.81;;;20.00;44.06
21182;BME280;10749;46.296;7.524;2023-07-31T00:48:42;95130.34;;;20.02;43.66
21182;BME280;10749;46.296;7.524;2023-07-31T00:51:08;95128.56;;;19.96;43.73
21182;BME280;10749;46.296;7.524;2023-07-31T00:53:34;95129.84;;;19.94;43.84
21182;BME280;10749;46.296;7.524;2023-07-31T00:55:59;95139.22;;;19.91;44.61
21182;BME280;10749;46.296;7.524;2023-07-31T00:58:24;95149.47;;;19.94;44.51
21182;BME280;10749;46.296;7.524;2023-07-31T01:00:50;95147.94;;;19.87;44.36
21182;BME280;10749;46.296;7.524;2023-07-31T01:03:16;95143.00;;;19.83;44.49
21182;BME280;10749;46.296;7.524;2023-07-31T01:08:42;95136.72;;;19.78;44.45
21182;BME280;10749;46.296;7.524;2023-07-31T01:11:16;95122.69;;;19.76;44.34
21182;BME280;10749;46.296;7.524;2023-07-31T01:13:44;95134.03;;;19.78;44.74
21182;BME280;10749;46.296;7.524;2023-07-31T01:16:10;95130.88;;;19.81;44.41
21182;BME280;10749;46.296;7.524;2023-07-31T01:18:35;95136.72;;;19.78;44.62
21182;BME280;10749;46.296;7.524;2023-07-31T01:26:28;95131.06;;;19.68;44.55
21182;BME280;10749;46.296;7.524;2023-07-31T01:28:56;95127.81;;;19.66;44.97
21182;BME280;10749;46.296;7.524;2023-07-31T01:31:29;95120.06;;;19.58;45.17
21182;BME280;10749;46.296;7.524;2023-07-31T01:33:57;95115.59;;;19.52;44.97
21182;BME280;10749;46.296;7.524;2023-07-31T01:36:25;95120.50;;;19.55;44.84
21182;BME280;10749;46.296;7.524;2023-07-31T01:38:50;95112.25;;;19.56;44.93
21182;BME280;10749;46.296;7.524;2023-07-31T01:41:18;95117.25;;;19.53;45.35
21182;BME280;10749;46.296;7.524;2023-07-31T01:43:45;95117.25;;;19.53;45.02
21182;BME280;10749;46.296;7.524;2023-07-31T01:46:11;95121.59;;;19.54;45.14
21182;BME280;10749;46.296;7.524;2023-07-31T01:48:36;95109.66;;;19.50;45.25
21182;BME280;10749;46.296;7.524;2023-07-31T01:51:02;95110.47;;;19.50;45.26
21182;BME280;10749;46.296;7.524;2023-07-31T01:53:28;95111.75;;;19.48;45.41
21182;BME280;10749;46.296;7.524;2023-07-31T01:55:54;95105.19;;;19.44;45.93
21182;BME280;10749;46.296;7.524;2023-07-31T01:58:19;95108.53;;;19.39;45.99
21182;BME280;10749;46.296;7.524;2023-07-31T02:00:45;95114.13;;;19.38;45.92
21182;BME280;10749;46.296;7.524;2023-07-31T02:03:11;95115.38;;;19.35;46.53
21182;BME280;10749;46.296;7.524;2023-07-31T02:05:36;95110.38;;;19.38;46.08
21182;BME280;10749;46.296;7.524;2023-07-31T02:08:02;95098.47;;;19.34;46.62
21182;BME280;10749;46.296;7.524;2023-07-31T02:10:27;95095.66;;;19.29;46.51
21182;BME280;10749;46.296;7.524;2023-07-31T02:12:52;95104.16;;;19.26;46.79
21182;BME280;10749;46.296;7.524;2023-07-31T02:15:18;95098.53;;;19.16;46.86
21182;BME280;10749;46.296;7.524;2023-07-31T02:17:43;95089.28;;;19.12;46.88
21182;BME280;10749;46.296;7.524;2023-07-31T02:20:09;95092.19;;;19.11;47.14
21182;BME280;10749;46.296;7.524;2023-07-31T02:22:34;95101.28;;;19.10;46.83
21182;BME280;10749;46.296;7.524;2023-07-31T02:25:00;95100.31;;;19.04;47.34
21182;BME280;10749;46.296;7.524;2023-07-31T02:27:25;95098.06;;;19.01;47.07
21182;BME280;10749;46.296;7.524;2023-07-31T02:29:52;95098.53;;;18.98;47.29
21182;BME280;10749;46.296;7.524;2023-07-31T02:32:18;95091.53;;;18.97;47.28
21182;BME280;10749;46.296;7.524;2023-07-31T02:34:43;95094.81;;;18.99;47.39
21182;BME280;10749;46.296;7.524;2023-07-31T02:37:08;95083.34;;;18.92;47.55
21182;BME280;10749;46.296;7.524;2023-07-31T02:39:33;95088.47;;;18.94;47.56
21182;BME280;10749;46.296;7.524;2023-07-31T02:41:59;95082.75;;;18.90;47.53
21182;BME280;10749;46.296;7.524;2023-07-31T02:44:25;95090.22;;;18.88;47.67
21182;BME280;10749;46.296;7.524;2023-07-31T02:46:51;95080.97;;;18.84;47.82
21182;BME280;10749;46.296;7.524;2023-07-31T02:49:16;95076.88;;;18.81;47.55
21182;BME280;10749;46.296;7.524;2023-07-31T02:51:41;95079.78;;;18.80;48.12
21182;BME280;10749;46.296;7.524;2023-07-31T02:54:07;95084.41;;;18.73;47.94
21182;BME280;10749;46.296;7.524;2023-07-31T02:56:32;95089.53;;;18.74;48.05
21182;BME280;10749;46.296;7.524;2023-07-31T02:58:57;95091.19;;;18.75;48.08
21182;BME280;10749;46.296;7.524;2023-07-31T03:01:23;95097.59;;;18.74;47.85
21182;BME280;10749;46.296;7.524;2023-07-31T03:03:48;95088.56;;;18.69;47.99
21182;BME280;10749;46.296;7.524;2023-07-31T03:06:13;95095.56;;;18.70;48.45
21182;BME280;10749;46.296;7.524;2023-07-31T03:08:39;95098.09;;;18.65;48.52
21182;BME280;10749;46.296;7.524;2023-07-31T03:11:04;95097.63;;;18.68;48.19
21182;BME280;10749;46.296;7.524;2023-07-31T03:13:29;95098.63;;;18.73;48.15
21182;BME280;10749;46.296;7.524;2023-07-31T03:15:54;95101.31;;;18.73;48.38
21182;BME280;10749;46.296;7.524;2023-07-31T03:18:20;95098.72;;;18.67;48.53
21182;BME280;10749;46.296;7.524;2023-07-31T03:20:45;95098.19;;;18.58;48.64
21182;BME280;10749;46.296;7.524;2023-07-31T03:23:10;95105.03;;;18.54;48.62
21182;BME280;10749;46.296;7.524;2023-07-31T03:25:36;95097.56;;;18.56;48.35
21182;BME280;10749;46.296;7.524;2023-07-31T03:28:01;95101.22;;;18.62;48.48
21182;BME280;10749;46.296;7.524;2023-07-31T03:30:26;95093.19;;;18.62;48.54
21182;BME280;10749;46.296;7.524;2023-07-31T03:32:52;95091.53;;;18.61;48.61
21182;BME280;10749;46.296;7.524;2023-07-31T03:35:17;95092.00;;;18.58;48.35
21182;BME280;10749;46.296;7.524;2023-07-31T03:37:43;95097.81;;;18.55;48.45
21182;BME280;10749;46.296;7.524;2023-07-31T03:40:08;95106.53;;;18.43;48.67
21182;BME280;10749;46.296;7.524;2023-07-31T03:42:34;95104.31;;;18.40;48.99
21182;BME280;10749;46.296;7.524;2023-07-31T03:44:59;95108.63;;;18.41;48.91
21182;BME280;10749;46.296;7.524;2023-07-31T03:47:24;95114.44;;;18.38;49.42
21182;BME280;10749;46.296;7.524;2023-07-31T03:49:50;95114.69;;;18.30;49.30
21182;BME280;10749;46.296;7.524;2023-07-31T03:52:15;95121.13;;;18.29;49.32
21182;BME280;10749;46.296;7.524;2023-07-31T03:54:41;95118.25;;;18.24;49.55
21182;BME280;10749;46.296;7.524;2023-07-31T03:57:06;95114.56;;;18.25;49.35
21182;BME280;10749;46.296;7.524;2023-07-31T03:59:31;95126.03;;;18.32;49.09
21182;BME280;10749;46.296;7.524;2023-07-31T04:01:57;95135.19;;;18.43;49.07
21182;BME280;10749;46.296;7.524;2023-07-31T04:04:22;95126.72;;;18.46;49.01
21182;BME280;10749;46.296;7.524;2023-07-31T04:06:47;95121.00;;;18.42;49.07
21182;BME280;10749;46.296;7.524;2023-07-31T04:09:12;95128.63;;;18.39;49.33
21182;BME280;10749;46.296;7.524;2023-07-31T04:11:38;95140.16;;;18.39;49.05
21182;BME280;10749;46.296;7.524;2023-07-31T04:14:04;95136.09;;;18.37;49.20
21182;BME280;10749;46.296;7.524;2023-07-31T04:16:29;95125.16;;;18.38;49.64
21182;BME280;10749;46.296;7.524;2023-07-31T04:18:55;95129.31;;;18.34;49.58
21182;BME280;10749;46.296;7.524;2023-07-31T04:21:20;95123.78;;;18.29;49.69
21182;BME280;10749;46.296;7.524;2023-07-31T04:23:45;95124.06;;;18.21;49.56
21182;BME280;10749;46.296;7.524;2023-07-31T04:26:11;95124.44;;;18.25;49.45
21182;BME280;10749;46.296;7.524;2023-07-31T04:28:36;95119.47;;;18.28;49.40
21182;BME280;10749;46.296;7.524;2023-07-31T04:31:01;95129.56;;;18.26;49.61
21182;BME280;10749;46.296;7.524;2023-07-31T04:33:27;95131.22;;;18.27;49.54
21182;BME280;10749;46.296;7.524;2023-07-31T04:35:53;95121.31;;;18.28;49.85
21182;BME280;10749;46.296;7.524;2023-07-31T04:38:19;95117.81;;;18.27;49.69
21182;BME280;10749;46.296;7.524;2023-07-31T04:40:45;95120.34;;;18.22;50.00
21182;BME280;10749;46.296;7.524;2023-07-31T04:43:10;95117.81;;;18.27;50.03
21182;BME280;10749;46.296;7.524;2023-07-31T04:45:35;95117.38;;;18.30;49.90
21182;BME280;10749;46.296;7.524;2023-07-31T04:48:01;95118.72;;;18.39;49.75
21182;BME280;10749;46.296;7.524;2023-07-31T04:50:26;95111.47;;;18.47;49.56
21182;BME280;10749;46.296;7.524;2023-07-31T04:52:51;95108.00;;;18.39;49.99
21182;BME280;10749;46.296;7.524;2023-07-31T04:55:17;95106.97;;;18.40;49.84
21182;BME280;10749;46.296;7.524;2023-07-31T04:57:42;95101.63;;;18.40;49.84
21182;BME280;10749;46.296;7.524;2023-07-31T05:00:07;95104.09;;;18.42;50.06
21182;BME280;10749;46.296;7.524;2023-07-31T05:02:33;95107.81;;;18.41;50.63
21182;BME280;10749;46.296;7.524;2023-07-31T05:04:58;95103.28;;;18.41;50.69
21182;BME280;10749;46.296;7.524;2023-07-31T05:07:23;95099.41;;;18.37;50.41
21182;BME280;10749;46.296;7.524;2023-07-31T05:09:49;95108.19;;;18.44;50.34
21182;BME280;10749;46.296;7.524;2023-07-31T05:12:14;95122.03;;;18.41;50.28
21182;BME280;10749;46.296;7.524;2023-07-31T05:14:39;95114.16;;;18.47;50.23
21182;BME280;10749;46.296;7.524;2023-07-31T05:17:05;95113.53;;;18.44;50.56
21182;BME280;10749;46.296;7.524;2023-07-31T05:19:30;95123.06;;;18.40;50.55
21182;BME280;10749;46.296;7.524;2023-07-31T05:21:56;95121.78;;;18.43;50.44
21182;BME280;10749;46.296;7.524;2023-07-31T05:24:21;95114.00;;;18.41;50.63
21182;BME280;10749;46.296;7.524;2023-07-31T05:26:46;95107.81;;;18.41;50.53
21182;BME280;10749;46.296;7.524;2023-07-31T05:29:12;95118.91;;;18.44;50.68
21182;BME280;10749;46.296;7.524;2023-07-31T05:31:38;95114.94;;;18.47;50.28
21182;BME280;10749;46.296;7.524;2023-07-31T05:34:04;95115.56;;;18.49;50.80
21182;BME280;10749;46.296;7.524;2023-07-31T05:36:29;95121.94;;;18.55;50.84
21182;BME280;10749;46.296;7.524;2023-07-31T05:38:54;95124.97;;;18.58;50.62
21182;BME280;10749;46.296;7.524;2023-07-31T05:41:19;95116.69;;;18.60;50.66
21182;BME280;10749;46.296;7.524;2023-07-31T05:43:45;95114.78;;;18.67;50.45
21182;BME280;10749;46.296;7.524;2023-07-31T05:46:10;95112.84;;;18.74;50.31
21182;BME280;10749;46.296;7.524;2023-07-31T05:48:37;95103.97;;;18.73;50.68
21182;BME280;10749;46.296;7.524;2023-07-31T05:51:02;95102.28;;;18.79;50.46
21182;BME280;10749;46.296;7.524;2023-07-31T05:53:28;95108.38;;;18.86;50.42
21182;BME280;10749;46.296;7.524;2023-07-31T05:55:53;95111.78;;;18.93;50.54
21182;BME280;10749;46.296;7.524;2023-07-31T05:58:19;95126.19;;;18.99;50.33
21182;BME280;10749;46.296;7.524;2023-07-31T06:00:44;95126.47;;;19.09;50.76
21182;BME280;10749;46.296;7.524;2023-07-31T06:03:09;95126.38;;;19.15;50.77
21182;BME280;10749;46.296;7.524;2023-07-31T06:05:35;95119.53;;;19.19;50.73
21182;BME280;10749;46.296;7.524;2023-07-31T06:08:00;95114.31;;;19.24;50.59
21182;BME280;10749;46.296;7.524;2023-07-31T06:10:26;95114.31;;;19.24;50.92
21182;BME280;10749;46.296;7.524;2023-07-31T06:12:51;95124.59;;;19.27;50.72
21182;BME280;10749;46.296;7.524;2023-07-31T06:15:16;95122.50;;;19.29;50.58
21182;BME280;10749;46.296;7.524;2023-07-31T06:17:44;95113.75;;;19.34;50.58
21182;BME280;10749;46.296;7.524;2023-07-31T06:20:09;95126.22;;;19.28;50.47
21182;BME280;10749;46.296;7.524;2023-07-31T06:22:35;95129.47;;;19.30;50.38
21182;BME280;10749;46.296;7.524;2023-07-31T06:25:00;95124.25;;;19.35;50.60
21182;BME280;10749;46.296;7.524;2023-07-31T06:27:25;95125.00;;;19.43;50.61
21182;BME280;10749;46.296;7.524;2023-07-31T06:29:51;95126.81;;;19.49;50.30
21182;BME280;10749;46.296;7.524;2023-07-31T06:32:16;95119.47;;;19.56;50.13
21182;BME280;10749;46.296;7.524;2023-07-31T06:34:42;95129.53;;;19.60;49.64
21182;BME280;10749;46.296;7.524;2023-07-31T06:37:07;95119.97;;;19.64;49.76
21182;BME280;10749;46.296;7.524;2023-07-31T06:39:32;95114.06;;;19.74;49.44
21182;BME280;10749;46.296;7.524;2023-07-31T06:41:57;95117.91;;;19.78;49.69
21182;BME280;10749;46.296;7.524;2023-07-31T06:44:23;95115.94;;;19.85;49.81
21182;BME280;10749;46.296;7.524;2023-07-31T06:46:48;95104.38;;;19.85;50.14
21182;BME280;10749;46.296;7.524;2023-07-31T06:49:13;95107.19;;;19.90;49.90
21182;BME280;10749;46.296;7.524;2023-07-31T06:51:40;95105.91;;;19.92;49.85
21182;BME280;10749;46.296;7.524;2023-07-31T06:54:05;95116.22;;;19.95;49.31
21182;BME280;10749;46.296;7.524;2023-07-31T06:56:31;95103.81;;;19.94;48.21
21182;BME280;10749;46.296;7.524;2023-07-31T06:58:56;95099.63;;;19.98;49.40
21182;BME280;10749;46.296;7.524;2023-07-31T07:01:21;95096.13;;;20.09;49.16
21182;BME280;10749;46.296;7.524;2023-07-31T07:03:47;95080.25;;;20.19;49.54
21182;BME280;10749;46.296;7.524;2023-07-31T07:06:12;95075.56;;;20.26;49.34
21182;BME280;10749;46.296;7.524;2023-07-31T07:08:37;95074.69;;;20.33;49.46
21182;BME280;10749;46.296;7.524;2023-07-31T07:11:03;95069.19;;;20.39;48.99
21182;BME280;10749;46.296;7.524;2023-07-31T07:13:28;95066.13;;;20.59;49.20
21182;BME280;10749;46.296;7.524;2023-07-31T07:15:54;95068.06;;;20.75;49.33
21182;BME280;10749;46.296;7.524;2023-07-31T07:18:19;95063.41;;;20.82;49.02
21182;BME280;10749;46.296;7.524;2023-07-31T07:20:50;95065.00;;;20.83;49.11
21182;BME280;10749;46.296;7.524;2023-07-31T07:23:16;95058.22;;;20.92;49.27
21182;BME280;10749;46.296;7.524;2023-07-31T07:25:42;95064.75;;;20.96;48.97
21182;BME280;10749;46.296;7.524;2023-07-31T07:28:08;95065.44;;;21.03;48.84
21182;BME280;10749;46.296;7.524;2023-07-31T07:30:33;95064.28;;;20.99;49.17
21182;BME280;10749;46.296;7.524;2023-07-31T07:32:58;95063.81;;;21.02;48.77
21182;BME280;10749;46.296;7.524;2023-07-31T07:35:24;95062.84;;;21.08;49.12
21182;BME280;10749;46.296;7.524;2023-07-31T07:37:49;95064.47;;;21.09;48.71
21182;BME280;10749;46.296;7.524;2023-07-31T07:40:19;95055.56;;;21.21;48.75
21182;BME280;10749;46.296;7.524;2023-07-31T07:42:44;95044.19;;;21.30;48.83
21182;BME280;10749;46.296;7.524;2023-07-31T07:45:09;95049.44;;;21.37;48.42
21182;BME280;10749;46.296;7.524;2023-07-31T07:47:35;95035.38;;;21.35;48.55
21182;BME280;10749;46.296;7.524;2023-07-31T07:50:00;95047.00;;;21.52;48.86
21182;BME280;10749;46.296;7.524;2023-07-31T07:52:25;95046.03;;;21.58;48.51
21182;BME280;10749;46.296;7.524;2023-07-31T07:54:51;95038.88;;;21.63;48.41
21182;BME280;10749;46.296;7.524;2023-07-31T07:57:16;95035.44;;;21.68;48.59
21182;BME280;10749;46.296;7.524;2023-07-31T07:59:41;95038.38;;;21.67;47.94
21182;BME280;10749;46.296;7.524;2023-07-31T08:02:07;95021.88;;;21.63;48.13
21182;BME280;10749;46.296;7.524;2023-07-31T08:04:32;95013.81;;;21.63;48.18
21182;BME280;10749;46.296;7.524;2023-07-31T08:06:57;95005.72;;;21.63;48.02
21182;BME280;10749;46.296;7.524;2023-07-31T08:09:23;95006.31;;;21.65;47.95
21182;BME280;10749;46.296;7.524;2023-07-31T08:11:48;95004.91;;;21.79;48.30
21182;BME280;10749;46.296;7.524;2023-07-31T08:14:14;95011.66;;;21.93;48.43
21182;BME280;10749;46.296;7.524;2023-07-31T08:16:39;95000.53;;;22.06;48.17
21182;BME280;10749;46.296;7.524;2023-07-31T08:19:04;94996.84;;;22.13;47.76
21182;BME280;10749;46.296;7.524;2023-07-31T08:21:36;95005.66;;;22.08;47.90
21182;BME280;10749;46.296;7.524;2023-07-31T08:24:01;94993.50;;;22.05;47.90
21182;BME280;10749;46.296;7.524;2023-07-31T08:26:26;94993.41;;;22.17;47.74
21182;BME280;10749;46.296;7.524;2023-07-31T08:28:52;94999.00;;;22.32;47.72
21182;BME280;10749;46.296;7.524;2023-07-31T08:31:17;94987.03;;;22.45;47.71
21182;BME280;10749;46.296;7.524;2023-07-31T08:33:43;94996.22;;;22.44;47.43
21182;BME280;10749;46.296;7.524;2023-07-31T08:36:08;94988.06;;;22.39;47.16
21182;BME280;10749;46.296;7.524;2023-07-31T08:38:34;94992.94;;;22.42;47.24
21182;BME280;10749;46.296;7.524;2023-07-31T08:40:59;94992.50;;;22.50;47.28
21182;BME280;10749;46.296;7.524;2023-07-31T08:43:25;94986.69;;;22.58;47.22
21182;BME280;10749;46.296;7.524;2023-07-31T08:45:51;94980.84;;;22.66;47.37
21182;BME280;10749;46.296;7.524;2023-07-31T08:48:17;94980.78;;;22.61;47.32
21182;BME280;10749;46.296;7.524;2023-07-31T08:50:43;94973.34;;;22.68;47.22
21182;BME280;10749;46.296;7.524;2023-07-31T08:53:09;94965.91;;;22.59;46.87
21182;BME280;10749;46.296;7.524;2023-07-31T08:55:35;94964.03;;;22.59;46.77
21182;BME280;10749;46.296;7.524;2023-07-31T08:58:02;94970.50;;;22.58;46.79
21182;BME280;10749;46.296;7.524;2023-07-31T09:00:29;94963.97;;;22.54;47.07
21182;BME280;10749;46.296;7.524;2023-07-31T09:03:02;94955.66;;;22.55;46.66
21182;BME280;10749;46.296;7.524;2023-07-31T09:05:30;94949.22;;;22.62;46.78
21182;BME280;10749;46.296;7.524;2023-07-31T09:07:56;94948.03;;;22.69;46.80
21182;BME280;10749;46.296;7.524;2023-07-31T09:10:22;94952.59;;;22.69;46.37
21182;BME280;10749;46.296;7.524;2023-07-31T09:12:50;94942.66;;;22.74;46.57
21182;BME280;10749;46.296;7.524;2023-07-31T09:15:16;94943.91;;;22.88;46.60
21182;BME280;10749;46.296;7.524;2023-07-31T09:17:42;94941.78;;;22.90;46.39
21182;BME280;10749;46.296;7.524;2023-07-31T09:20:15;94945.03;;;22.92;46.54
21182;BME280;10749;46.296;7.524;2023-07-31T09:22:41;94948.09;;;23.01;46.19
21182;BME280;10749;46.296;7.524;2023-07-31T09:25:19;94934.75;;;23.16;46.29
21182;BME280;10749;46.296;7.524;2023-07-31T09:28:02;94930.06;;;23.33;46.52
21182;BME280;10749;46.296;7.524;2023-07-31T09:30:28;94925.13;;;23.52;46.59
21182;BME280;10749;46.296;7.524;2023-07-31T09:33:02;94919.28;;;23.65;46.54
21182;BME280;10749;46.296;7.524;2023-07-31T09:35:32;94910.88;;;23.62;46.07
21182;BME280;10749;46.296;7.524;2023-07-31T09:38:09;94908.94;;;23.57;46.28
21182;BME280;10749;46.296;7.524;2023-07-31T09:40:37;94905.72;;;23.55;46.14
21182;BME280;10749;46.296;7.524;2023-07-31T09:43:04;94896.00;;;23.59;46.15
21182;BME280;10749;46.296;7.524;2023-07-31T09:45:34;94892.53;;;23.64;46.17
21182;BME280;10749;46.296;7.524;2023-07-31T09:48:00;94900.88;;;23.62;45.81
21182;BME280;10749;46.296;7.524;2023-07-31T09:50:25;94894.38;;;23.58;45.72
21182;BME280;10749;46.296;7.524;2023-07-31T09:52:53;94895.44;;;23.57;45.95
21182;BME280;10749;46.296;7.524;2023-07-31T09:55:19;94890.59;;;23.59;45.70
21182;BME280;10749;46.296;7.524;2023-07-31T09:57:47;94890.66;;;23.64;45.42
21182;BME280;10749;46.296;7.524;2023-07-31T10:00:14;94886.31;;;23.63;45.65
21182;BME280;10749;46.296;7.524;2023-07-31T10:02:41;94877.94;;;23.65;45.26
21182;BME280;10749;46.296;7.524;2023-07-31T10:05:07;94877.19;;;23.74;45.53
21182;BME280;10749;46.296;7.524;2023-07-31T10:07:36;94879.41;;;23.82;45.25
21182;BME280;10749;46.296;7.524;2023-07-31T10:10:04;94871.88;;;23.84;45.11
21182;BME280;10749;46.296;7.524;2023-07-31T10:12:31;94867.00;;;23.86;45.10
21182;BME280;10749;46.296;7.524;2023-07-31T10:14:59;94873.78;;;23.89;45.36
21182;BME280;10749;46.296;7.524;2023-07-31T10:17:26;94869.22;;;23.95;45.11
21182;BME280;10749;46.296;7.524;2023-07-31T10:19:52;94865.47;;;24.01;45.10
21182;BME280;10749;46.296;7.524;2023-07-31T10:22:19;94870.63;;;24.07;45.00
21182;BME280;10749;46.296;7.524;2023-07-31T10:24:45;94863.38;;;24.13;45.15
21182;BME280;10749;46.296;7.524;2023-07-31T10:27:11;94852.88;;;24.16;44.94
21182;BME280;10749;46.296;7.524;2023-07-31T10:29:38;94849.13;;;24.27;45.09
21182;BME280;10749;46.296;7.524;2023-07-31T10:32:05;94844.31;;;24.45;45.24
21182;BME280;10749;46.296;7.524;2023-07-31T10:34:34;94837.63;;;24.62;45.14
21182;BME280;10749;46.296;7.524;2023-07-31T10:37:27;94830.88;;;24.70;45.08
21182;BME280;10749;46.296;7.524;2023-07-31T10:40:05;94820.06;;;24.75;44.99
21182;BME280;10749;46.296;7.524;2023-07-31T10:42:35;94814.94;;;24.83;44.54
21182;BME280;10749;46.296;7.524;2023-07-31T10:45:05;94817.13;;;24.92;44.67
21182;BME280;10749;46.296;7.524;2023-07-31T10:47:42;94809.53;;;24.94;44.77
21182;BME280;10749;46.296;7.524;2023-07-31T10:50:18;94816.31;;;25.01;44.54
21182;BME280;10749;46.296;7.524;2023-07-31T10:52:56;94812.53;;;25.07;44.34
21182;BME280;10749;46.296;7.524;2023-07-31T10:55:42;94804.44;;;25.17;44.21
21182;BME280;10749;46.296;7.524;2023-07-31T10:58:12;94796.03;;;25.29;44.50
21182;BME280;10749;46.296;7.524;2023-07-31T11:00:43;94804.69;;;25.41;44.44
21182;BME280;10749;46.296;7.524;2023-07-31T11:10:43;94781.91;;;25.67;43.96
21182;BME280;10749;46.296;7.524;2023-07-31T11:13:09;94774.56;;;25.78;43.93
21182;BME280;10749;46.296;7.524;2023-07-31T11:15:34;94774.25;;;25.85;43.82
21182;BME280;10749;46.296;7.524;2023-07-31T11:18:00;94765.84;;;25.91;43.55
21182;BME280;10749;46.296;7.524;2023-07-31T11:20:32;94769.06;;;25.93;43.71
21182;BME280;10749;46.296;7.524;2023-07-31T11:23:02;94764.44;;;25.99;43.89
21182;BME280;10749;46.296;7.524;2023-07-31T11:25:31;94755.19;;;26.05;43.72
21182;BME280;10749;46.296;7.524;2023-07-31T11:27:58;94758.44;;;26.07;43.67
21182;BME280;10749;46.296;7.524;2023-07-31T11:30:27;94756.22;;;26.19;43.48
21182;BME280;10749;46.296;7.524;2023-07-31T11:32:55;94746.44;;;26.33;43.40
21182;BME280;10749;46.296;7.524;2023-07-31T11:35:20;94736.06;;;26.40;43.17
21182;BME280;10749;46.296;7.524;2023-07-31T11:37:46;94732.75;;;26.48;43.13
21182;BME280;10749;46.296;7.524;2023-07-31T11:40:11;94729.19;;;26.58;43.36
21182;BME280;10749;46.296;7.524;2023-07-31T11:42:37;94719.03;;;26.74;43.15
21182;BME280;10749;46.296;7.524;2023-07-31T11:45:07;94727.38;;;26.87;42.87
21182;BME280;10749;46.296;7.524;2023-07-31T11:47:33;94714.03;;;26.91;42.82
21182;BME280;10749;46.296;7.524;2023-07-31T11:50:05;94718.31;;;26.97;42.57
21182;BME280;10749;46.296;7.524;2023-07-31T11:52:35;94709.13;;;26.93;42.49
21182;BME280;10749;46.296;7.524;2023-07-31T11:55:02;94700.97;;;26.93;42.33
21182;BME280;10749;46.296;7.524;2023-07-31T11:57:27;94692.16;;;27.06;42.33
21182;BME280;10749;46.296;7.524;2023-07-31T11:59:53;94695.06;;;27.15;42.39
21182;BME280;10749;46.296;7.524;2023-07-31T12:02:20;94683.81;;;27.26;42.17
21182;BME280;10749;46.296;7.524;2023-07-31T12:04:46;94683.38;;;27.43;42.33
21182;BME280;10749;46.296;7.524;2023-07-31T12:07:12;94671.69;;;27.42;41.81
21182;BME280;10749;46.296;7.524;2023-07-31T12:09:38;94677.63;;;27.49;42.04
21182;BME280;10749;46.296;7.524;2023-07-31T12:12:08;94665.59;;;27.56;42.14
21182;BME280;10749;46.296;7.524;2023-07-31T12:14:33;94669.81;;;27.67;41.90
21182;BME280;10749;46.296;7.524;2023-07-31T12:17:00;94662.19;;;27.69;41.48
21182;BME280;10749;46.296;7.524;2023-07-31T12:19:26;94658.22;;;27.80;41.72
21182;BME280;10749;46.296;7.524;2023-07-31T12:22:13;94668.94;;;27.95;41.39
21182;BME280;10749;46.296;7.524;2023-07-31T12:24:41;94657.41;;;28.03;41.15
21182;BME280;10749;46.296;7.524;2023-07-31T12:27:14;94653.00;;;28.07;41.26
21182;BME280;10749;46.296;7.524;2023-07-31T12:29:41;94651.38;;;28.06;40.85
21182;BME280;10749;46.296;7.524;2023-07-31T12:32:24;94651.53;;;28.15;40.88
21182;BME280;10749;46.296;7.524;2023-07-31T12:34:50;94649.91;;;28.14;40.73
21182;BME280;10749;46.296;7.524;2023-07-31T12:37:16;94644.63;;;28.22;40.98
21182;BME280;10749;46.296;7.524;2023-07-31T12:39:42;94645.59;;;28.31;40.88
21182;BME280;10749;46.296;7.524;2023-07-31T12:42:07;94636.16;;;28.42;40.96
21182;BME280;10749;46.296;7.524;2023-07-31T12:44:32;94638.81;;;28.48;40.57
21182;BME280;10749;46.296;7.524;2023-07-31T12:46:58;94637.19;;;28.47;40.70
21182;BME280;10749;46.296;7.524;2023-07-31T12:49:24;94626.47;;;28.36;40.11
21182;BME280;10749;46.296;7.524;2023-07-31T12:51:49;94629.41;;;28.40;40.13
21182;BME280;10749;46.296;7.524;2023-07-31T12:54:14;94626.38;;;28.41;40.47
21182;BME280;10749;46.296;7.524;2023-07-31T12:56:40;94625.34;;;28.37;40.10
21182;BME280;10749;46.296;7.524;2023-07-31T12:59:05;94631.47;;;28.29;39.64
21182;BME280;10749;46.296;7.524;2023-07-31T13:01:31;94610.50;;;28.30;39.74
21182;BME280;10749;46.296;7.524;2023-07-31T13:03:56;94602.88;;;28.32;39.60
21182;BME280;10749;46.296;7.524;2023-07-31T13:06:22;94600.63;;;28.34;39.71
21182;BME280;10749;46.296;7.524;2023-07-31T13:08:47;94597.63;;;28.35;39.43
21182;BME280;10749;46.296;7.524;2023-07-31T13:11:13;94592.13;;;28.40;39.34